Time;durP1;ratioP1;P1;durP2;ratioP2;P2;SDS_P1;SDS_P2;PMS_P1;PMS_P2;Temp;Humidity;BMP_temperature;BMP_pressure;BME280_temperature;BME280_humidity;BME280_pressure;Samples;Min_cycle;Max_cycle;Signal;HPM_P1;HPM_P2
2023/06/19 00:00:15;;;;;;;5.95;5.53;;;;;;;;;;5067985;27;98888;-74
2023/06/19 00:02:44;;;;;;;6.00;4.88;;;;;;;;;;5051091;27;98346;-74
2023/06/19 00:05:12;;;;;;;5.93;5.53;;;;;;;;;;5070926;27;99491;-74
2023/06/19 00:07:38;;;;;;;5.85;5.45;;;;;;;;;;5069108;27;98231;-74
2023/06/19 00:10:05;;;;;;;5.50;4.75;;;;;;;;;;5069290;27;99148;-74
2023/06/19 00:12:32;;;;;;;6.28;4.93;;;;;;;;;;5076555;27;99134;-74
2023/06/19 00:14:59;;;;;;;6.72;5.00;;;;;;;;;;5089539;27;98240;-74
2023/06/19 00:17:26;;;;;;;7.93;6.32;;;;;;;;;;5089225;27;98743;-74
2023/06/19 00:19:53;;;;;;;6.13;5.53;;;;;;;;;;5088061;27;98897;-73
2023/06/19 00:22:19;;;;;;;6.72;5.82;;;;;;;;;;5089374;27;98253;-74
2023/06/19 00:24:46;;;;;;;6.75;5.50;;;;;;;;;;5089771;27;99514;-74
2023/06/19 00:27:12;;;;;;;5.93;5.30;;;;;;;;;;5091484;27;98633;-73
2023/06/19 00:29:39;;;;;;;6.63;5.95;;;;;;;;;;5088035;27;99331;-74
2023/06/19 00:32:06;;;;;;;6.35;5.60;;;;;;;;;;5089174;27;98820;-74
2023/06/19 00:34:33;;;;;;;6.30;5.45;;;;;;;;;;5052426;27;98888;-73
2023/06/19 00:36:59;;;;;;;6.07;5.60;;;;;;;;;;5068683;27;99540;-74
2023/06/19 00:39:27;;;;;;;8.90;5.50;;;;;;;;;;5068568;27;99903;-73
2023/06/19 00:41:54;;;;;;;6.13;5.53;;;;;;;;;;5068228;27;98774;-73
2023/06/19 00:44:21;;;;;;;6.20;5.53;;;;;;;;;;5068205;27;98446;-74
2023/06/19 00:46:49;;;;;;;5.80;5.40;;;;;;;;;;5071568;27;100079;-73
2023/06/19 00:49:15;;;;;;;6.10;5.55;;;;;;;;;;5068741;27;98230;-74
2023/06/19 00:51:42;;;;;;;6.18;5.57;;;;;;;;;;5068599;27;99133;-73
2023/06/19 00:54:08;;;;;;;9.45;5.32;;;;;;;;;;5048361;27;98383;-73
2023/06/19 00:56:37;;;;;;;7.18;4.80;;;;;;;;;;5050574;27;101188;-74
2023/06/19 00:59:05;;;;;;;6.00;4.25;;;;;;;;;;5067375;27;99128;-73
2023/06/19 01:01:32;;;;;;;4.25;3.92;;;;;;;;;;5067941;27;98610;-74
2023/06/19 01:03:59;;;;;;;4.20;3.90;;;;;;;;;;5080405;27;98398;-74
2023/06/19 01:06:37;;;;;;;4.57;4.18;;;;;;;;;;5073764;27;100806;-74
2023/06/19 01:09:10;;;;;;;4.05;3.75;;;;;;;;;;5069817;27;98232;-74
2023/06/19 01:11:42;;;;;;;3.90;3.60;;;;;;;;;;5050093;27;102127;-73
2023/06/19 01:14:10;;;;;;;6.00;4.10;;;;;;;;;;5068448;27;98124;-73
2023/06/19 01:16:37;;;;;;;3.95;3.65;;;;;;;;;;5050362;27;99178;-73
2023/06/19 01:19:05;;;;;;;3.75;3.25;;;;;;;;;;5050740;27;100308;-73
2023/06/19 01:21:32;;;;;;;3.92;3.63;;;;;;;;;;5068048;27;98268;-73
2023/06/19 01:23:59;;;;;;;3.78;3.50;;;;;;;;;;5067385;27;98601;-73
2023/06/19 01:26:27;;;;;;;3.53;3.28;;;;;;;;;;5067992;27;98899;-73
2023/06/19 01:28:56;;;;;;;3.90;3.00;;;;;;;;;;5048993;27;98112;-73
2023/06/19 01:31:28;;;;;;;3.55;3.25;;;;;;;;;;5071524;27;98532;-73
2023/06/19 01:33:56;;;;;;;10.57;2.60;;;;;;;;;;5049921;27;99028;-73
2023/06/19 01:36:23;;;;;;;3.10;2.80;;;;;;;;;;5066828;27;98671;-73
2023/06/19 01:38:51;;;;;;;2.47;2.33;;;;;;;;;;5049420;27;99060;-73
2023/06/19 01:41:18;;;;;;;2.50;2.38;;;;;;;;;;5066551;27;98750;-73
2023/06/19 01:43:45;;;;;;;2.33;1.80;;;;;;;;;;5066382;27;98310;-73
2023/06/19 01:46:11;;;;;;;2.13;1.98;;;;;;;;;;5067793;27;99230;-75
2023/06/19 01:48:39;;;;;;;3.63;1.90;;;;;;;;;;5049110;27;98308;-74
2023/06/19 01:51:06;;;;;;;1.90;1.80;;;;;;;;;;5066883;27;99673;-75
2023/06/19 01:53:32;;;;;;;2.00;1.80;;;;;;;;;;5071081;27;98905;-75
2023/06/19 01:55:59;;;;;;;1.67;1.58;;;;;;;;;;5067789;27;98449;-73
2023/06/19 01:58:28;;;;;;;1.80;1.70;;;;;;;;;;5067053;27;98823;-73
2023/06/19 02:00:54;;;;;;;1.73;1.63;;;;;;;;;;5049411;27;98259;-73
2023/06/19 02:03:21;;;;;;;2.50;2.00;;;;;;;;;;5073764;27;99263;-73
2023/06/19 02:05:47;;;;;;;2.05;1.95;;;;;;;;;;5068513;27;101744;-73
2023/06/19 02:08:14;;;;;;;2.17;2.03;;;;;;;;;;5064765;27;98417;-73
2023/06/19 02:10:40;;;;;;;1.88;1.77;;;;;;;;;;5067838;27;98876;-74
2023/06/19 02:13:06;;;;;;;9.65;1.80;;;;;;;;;;5062204;27;98760;-73
2023/06/19 02:15:33;;;;;;;2.00;1.80;;;;;;;;;;5048599;27;98267;-75
2023/06/19 02:18:00;;;;;;;2.08;1.70;;;;;;;;;;5046642;27;98689;-74
2023/06/19 02:20:26;;;;;;;2.03;1.92;;;;;;;;;;5047731;27;98178;-74
2023/06/19 02:22:55;;;;;;;1.67;1.58;;;;;;;;;;5046916;27;99443;-74
2023/06/19 02:25:21;;;;;;;1.60;1.50;;;;;;;;;;5046129;27;99000;-74
2023/06/19 02:27:48;;;;;;;1.73;1.63;;;;;;;;;;5047332;27;98277;-74
2023/06/19 02:30:14;;;;;;;4.80;1.80;;;;;;;;;;5045222;27;101838;-74
2023/06/19 02:32:41;;;;;;;2.13;2.03;;;;;;;;;;5043956;27;99988;-74
2023/06/19 02:35:09;;;;;;;2.63;2.42;;;;;;;;;;5050189;27;98520;-74
2023/06/19 02:37:36;;;;;;;4.10;2.00;;;;;;;;;;5044632;27;101016;-74
2023/06/19 02:40:06;;;;;;;2.20;2.10;;;;;;;;;;5044020;27;98464;-74
2023/06/19 02:42:33;;;;;;;2.25;2.15;;;;;;;;;;5050608;27;98384;-74
2023/06/19 02:45:02;;;;;;;4.15;1.90;;;;;;;;;;5065324;27;101277;-75
2023/06/19 02:47:30;;;;;;;1.95;1.85;;;;;;;;;;5066636;27;98534;-74
2023/06/19 02:50:00;;;;;;;2.25;2.10;;;;;;;;;;5065314;27;98529;-75
2023/06/19 02:52:27;;;;;;;2.67;1.63;;;;;;;;;;5068010;27;101872;-74
2023/06/19 02:54:53;;;;;;;2.67;2.47;;;;;;;;;;5068311;27;98385;-74
2023/06/19 02:57:20;;;;;;;2.15;2.05;;;;;;;;;;5072835;27;98212;-75
2023/06/19 02:59:47;;;;;;;2.17;2.08;;;;;;;;;;5070587;27;98097;-74
2023/06/19 03:02:14;;;;;;;2.25;2.00;;;;;;;;;;5068751;27;98692;-74
2023/06/19 03:04:42;;;;;;;1.90;1.80;;;;;;;;;;5050854;27;100056;-74
2023/06/19 03:07:09;;;;;;;4.97;2.20;;;;;;;;;;5057572;27;98344;-74
2023/06/19 03:09:36;;;;;;;2.05;1.95;;;;;;;;;;5069489;27;99654;-74
2023/06/19 03:12:02;;;;;;;3.38;2.58;;;;;;;;;;5070258;27;98683;-74
2023/06/19 03:14:29;;;;;;;2.28;2.17;;;;;;;;;;5051183;27;98398;-74
2023/06/19 03:16:56;;;;;;;2.40;2.30;;;;;;;;;;5051572;27;99474;-75
2023/06/19 03:19:23;;;;;;;4.97;2.80;;;;;;;;;;5054851;27;99854;-74
2023/06/19 03:21:50;;;;;;;4.30;2.55;;;;;;;;;;5049872;27;99497;-75
2023/06/19 03:24:17;;;;;;;2.55;2.35;;;;;;;;;;5051031;27;101199;-74
2023/06/19 03:26:43;;;;;;;6.38;2.38;;;;;;;;;;5070094;27;98222;-75
2023/06/19 03:29:11;;;;;;;2.65;2.45;;;;;;;;;;5050602;27;100505;-74
2023/06/19 03:31:57;;;;;;;2.90;2.63;;;;;;;;;;5068743;27;99710;-74
2023/06/19 03:34:29;;;;;;;3.00;2.78;;;;;;;;;;5066350;27;98742;-75
2023/06/19 03:36:57;;;;;;;5.57;3.08;;;;;;;;;;5070357;27;101037;-74
2023/06/19 03:39:24;;;;;;;3.20;2.67;;;;;;;;;;5071942;27;101197;-74
2023/06/19 03:41:54;;;;;;;2.72;2.60;;;;;;;;;;5075100;27;98265;-74
2023/06/19 03:44:20;;;;;;;3.05;2.72;;;;;;;;;;5069961;27;100882;-73
2023/06/19 03:46:47;;;;;;;3.63;3.33;;;;;;;;;;5070037;27;99261;-73
2023/06/19 03:49:13;;;;;;;3.85;2.90;;;;;;;;;;5070848;27;101189;-74
2023/06/19 03:51:40;;;;;;;3.10;2.90;;;;;;;;;;5089145;27;100286;-73
2023/06/19 03:54:06;;;;;;;7.07;3.10;;;;;;;;;;5090124;27;98158;-73
2023/06/19 03:56:33;;;;;;;3.83;2.90;;;;;;;;;;5070794;27;101037;-74
2023/06/19 03:58:59;;;;;;;3.47;3.17;;;;;;;;;;5089004;27;99223;-74
2023/06/19 04:01:26;;;;;;;3.47;3.10;;;;;;;;;;5071524;27;98393;-73
2023/06/19 04:03:53;;;;;;;3.50;3.30;;;;;;;;;;5062413;27;99352;-75
2023/06/19 04:06:19;;;;;;;6.10;4.20;;;;;;;;;;5050109;27;98239;-75
2023/06/19 04:08:46;;;;;;;7.55;5.10;;;;;;;;;;5051009;27;101039;-75
2023/06/19 04:11:12;;;;;;;5.30;4.82;;;;;;;;;;5048654;27;100807;-74
2023/06/19 04:13:38;;;;;;;5.93;4.90;;;;;;;;;;5069247;27;98182;-76
2023/06/19 04:16:05;;;;;;;7.85;6.03;;;;;;;;;;5069452;27;99272;-74
2023/06/19 04:18:31;;;;;;;7.55;6.43;;;;;;;;;;5049724;27;101683;-75
2023/06/19 04:20:58;;;;;;;8.05;6.50;;;;;;;;;;5068939;27;98235;-75
2023/06/19 04:23:24;;;;;;;6.88;6.28;;;;;;;;;;5069412;27;98244;-74
2023/06/19 04:25:51;;;;;;;7.18;6.47;;;;;;;;;;5053052;27;101881;-75
2023/06/19 04:28:17;;;;;;;6.75;6.25;;;;;;;;;;5068761;27;98449;-74
2023/06/19 04:30:44;;;;;;;7.45;6.53;;;;;;;;;;5068630;27;100023;-74
2023/06/19 04:33:10;;;;;;;8.27;6.88;;;;;;;;;;5068722;27;98372;-73
2023/06/19 04:35:39;;;;;;;7.22;6.70;;;;;;;;;;5067380;27;98558;-73
2023/06/19 04:38:07;;;;;;;7.50;6.72;;;;;;;;;;5067578;27;99605;-73
2023/06/19 04:40:33;;;;;;;8.60;7.63;;;;;;;;;;5067411;27;98256;-75
2023/06/19 04:43:02;;;;;;;8.60;7.75;;;;;;;;;;5067855;27;99390;-74
2023/06/19 04:45:28;;;;;;;8.93;7.78;;;;;;;;;;5071459;27;98878;-75
2023/06/19 04:47:55;;;;;;;7.78;7.07;;;;;;;;;;5068251;27;99568;-75
2023/06/19 04:50:21;;;;;;;7.78;7.05;;;;;;;;;;5068594;27;100018;-74
2023/06/19 04:52:50;;;;;;;6.90;5.85;;;;;;;;;;5068246;27;98460;-74
2023/06/19 04:55:17;;;;;;;6.65;6.00;;;;;;;;;;5067796;27;98634;-75
2023/06/19 04:57:44;;;;;;;5.95;5.35;;;;;;;;;;5068347;27;99926;-74
2023/06/19 05:00:11;;;;;;;6.35;5.63;;;;;;;;;;5066500;27;98473;-75
2023/06/19 05:02:37;;;;;;;5.30;4.88;;;;;;;;;;5068511;27;99559;-75
2023/06/19 05:05:04;;;;;;;5.40;4.53;;;;;;;;;;5067518;27;99060;-74
2023/06/19 05:07:33;;;;;;;4.50;3.80;;;;;;;;;;5070518;27;98244;-74
2023/06/19 05:09:59;;;;;;;3.13;2.85;;;;;;;;;;5071781;27;100132;-75
2023/06/19 05:12:25;;;;;;;2.40;2.20;;;;;;;;;;5088988;27;98264;-75
2023/06/19 05:14:52;;;;;;;2.03;1.88;;;;;;;;;;5086997;27;99177;-75
2023/06/19 05:17:18;;;;;;;4.25;1.92;;;;;;;;;;5088472;27;100037;-75
2023/06/19 05:19:45;;;;;;;1.95;1.85;;;;;;;;;;5088042;27;98392;-75
2023/06/19 05:22:12;;;;;;;1.70;1.60;;;;;;;;;;5087756;27;99402;-75
2023/06/19 05:24:38;;;;;;;2.20;2.10;;;;;;;;;;5087866;27;99933;-75
2023/06/19 05:27:05;;;;;;;2.78;2.30;;;;;;;;;;5088046;27;98186;-75
2023/06/19 05:29:32;;;;;;;1.60;1.50;;;;;;;;;;5091007;27;99597;-75
2023/06/19 05:31:58;;;;;;;2.67;1.85;;;;;;;;;;5088415;27;98224;-74
2023/06/19 05:34:24;;;;;;;1.83;1.67;;;;;;;;;;5071527;27;99325;-74
2023/06/19 05:36:51;;;;;;;1.60;1.50;;;;;;;;;;5066839;27;98906;-74
2023/06/19 05:39:18;;;;;;;1.67;1.58;;;;;;;;;;5067910;27;98703;-75
2023/06/19 05:41:48;;;;;;;3.72;1.60;;;;;;;;;;5069829;27;99426;-75
2023/06/19 05:44:16;;;;;;;2.00;1.80;;;;;;;;;;5066395;27;100043;-74
2023/06/19 05:46:43;;;;;;;1.85;1.75;;;;;;;;;;5066834;27;98307;-75
2023/06/19 05:49:09;;;;;;;2.60;2.22;;;;;;;;;;5065456;27;98460;-75
2023/06/19 05:51:35;;;;;;;2.45;2.25;;;;;;;;;;5069924;27;99049;-75
2023/06/19 05:54:03;;;;;;;2.67;2.47;;;;;;;;;;5067460;27;99322;-74
2023/06/19 05:56:30;;;;;;;4.85;2.97;;;;;;;;;;5066776;27;99987;-75
2023/06/19 05:58:57;;;;;;;3.17;2.70;;;;;;;;;;5067157;27;98227;-74
2023/06/19 06:01:24;;;;;;;4.05;3.58;;;;;;;;;;5067836;27;99431;-73
2023/06/19 06:03:51;;;;;;;4.90;3.85;;;;;;;;;;5065816;27;98304;-75
2023/06/19 06:06:17;;;;;;;5.60;3.78;;;;;;;;;;5066481;27;100863;-74
2023/06/19 06:08:44;;;;;;;5.05;3.90;;;;;;;;;;5047208;27;99766;-74
2023/06/19 06:11:10;;;;;;;4.22;3.83;;;;;;;;;;5045747;27;100190;-74
2023/06/19 06:13:37;;;;;;;4.72;4.38;;;;;;;;;;5049333;27;98564;-73
2023/06/19 06:16:03;;;;;;;8.55;3.95;;;;;;;;;;5046678;27;99045;-74
2023/06/19 06:18:30;;;;;;;3.92;3.50;;;;;;;;;;5046171;27;99306;-75
2023/06/19 06:20:58;;;;;;;7.95;3.65;;;;;;;;;;5046720;27;99398;-75
2023/06/19 06:23:25;;;;;;;4.32;4.03;;;;;;;;;;5046711;27;99018;-75
2023/06/19 06:25:51;;;;;;;4.18;3.72;;;;;;;;;;5046260;27;98425;-75
2023/06/19 06:28:18;;;;;;;4.28;3.88;;;;;;;;;;5049985;27;98814;-74
2023/06/19 06:30:44;;;;;;;4.03;3.53;;;;;;;;;;5050301;27;100141;-75
2023/06/19 06:33:11;;;;;;;3.38;3.15;;;;;;;;;;5049580;27;98238;-74
2023/06/19 06:35:37;;;;;;;3.55;3.35;;;;;;;;;;5060749;27;99769;-75
2023/06/19 06:38:04;;;;;;;3.65;3.33;;;;;;;;;;5069056;27;98275;-75
2023/06/19 06:40:30;;;;;;;5.50;4.38;;;;;;;;;;5069911;27;98591;-75
2023/06/19 06:42:57;;;;;;;5.03;4.50;;;;;;;;;;5069650;27;98867;-75
2023/06/19 06:45:23;;;;;;;6.18;5.25;;;;;;;;;;5073436;27;98237;-75
2023/06/19 06:47:53;;;;;;;5.95;5.55;;;;;;;;;;5079442;27;99714;-74
2023/06/19 06:50:19;;;;;;;5.90;5.40;;;;;;;;;;5070012;27;98877;-75
2023/06/19 06:52:46;;;;;;;5.57;5.15;;;;;;;;;;5069393;27;98274;-75
2023/06/19 06:55:12;;;;;;;8.00;5.60;;;;;;;;;;5071902;27;98550;-75
2023/06/19 06:57:39;;;;;;;7.95;5.93;;;;;;;;;;5070589;27;98251;-75
2023/06/19 07:00:07;;;;;;;7.60;6.63;;;;;;;;;;5067772;27;99133;-75
2023/06/19 07:02:33;;;;;;;16.88;6.10;;;;;;;;;;5063271;27;100085;-75
2023/06/19 07:05:00;;;;;;;5.47;4.97;;;;;;;;;;5049408;27;98227;-76
2023/06/19 07:07:26;;;;;;;6.28;5.78;;;;;;;;;;5059054;27;98700;-75
2023/06/19 07:09:52;;;;;;;8.30;5.63;;;;;;;;;;5067840;27;98128;-75
2023/06/19 07:12:19;;;;;;;7.03;6.32;;;;;;;;;;5070010;27;98219;-75
2023/06/19 07:14:45;;;;;;;7.80;7.00;;;;;;;;;;5069516;27;98380;-75
2023/06/19 07:17:12;;;;;;;7.82;6.65;;;;;;;;;;5072454;27;99051;-75
2023/06/19 07:19:38;;;;;;;7.78;6.97;;;;;;;;;;5069665;27;98504;-75
2023/06/19 07:22:05;;;;;;;7.43;6.75;;;;;;;;;;5069170;27;100022;-75
2023/06/19 07:24:31;;;;;;;7.18;6.00;;;;;;;;;;5076967;27;98275;-75
2023/06/19 07:26:58;;;;;;;8.00;6.93;;;;;;;;;;5068505;27;98622;-75
2023/06/19 07:29:25;;;;;;;9.73;7.13;;;;;;;;;;5068173;27;99397;-75
2023/06/19 07:31:51;;;;;;;6.95;6.28;;;;;;;;;;5069218;27;98402;-75
2023/06/19 07:34:18;;;;;;;7.13;6.03;;;;;;;;;;5068830;27;98600;-75
2023/06/19 07:36:44;;;;;;;7.40;6.63;;;;;;;;;;5068199;27;99383;-75
2023/06/19 07:39:11;;;;;;;7.00;6.30;;;;;;;;;;5072210;27;98313;-75
2023/06/19 07:41:37;;;;;;;9.68;7.43;;;;;;;;;;5068732;27;98968;-75
2023/06/19 07:44:04;;;;;;;8.25;7.05;;;;;;;;;;5069577;27;98234;-75
2023/06/19 07:46:30;;;;;;;8.00;7.20;;;;;;;;;;5069599;27;99730;-74
2023/06/19 07:48:57;;;;;;;10.57;7.32;;;;;;;;;;5067416;27;99427;-74
2023/06/19 07:51:23;;;;;;;7.70;6.90;;;;;;;;;;5068675;27;98227;-74
2023/06/19 07:53:50;;;;;;;7.45;6.68;;;;;;;;;;5069616;27;99592;-74
2023/06/19 07:56:16;;;;;;;9.20;6.88;;;;;;;;;;5068251;27;99684;-74
2023/06/19 07:58:43;;;;;;;9.18;6.30;;;;;;;;;;5069387;27;98422;-74
2023/06/19 08:01:10;;;;;;;9.20;6.10;;;;;;;;;;5072053;27;99259;-73
2023/06/19 08:03:37;;;;;;;8.30;6.80;;;;;;;;;;5068257;27;98287;-74
2023/06/19 08:06:04;;;;;;;8.00;5.78;;;;;;;;;;5069188;27;99349;-74
2023/06/19 08:08:30;;;;;;;8.05;6.43;;;;;;;;;;5068935;27;99204;-75
2023/06/19 08:10:56;;;;;;;8.23;6.85;;;;;;;;;;5068204;27;98254;-75
2023/06/19 08:13:23;;;;;;;10.15;7.95;;;;;;;;;;5068967;27;99180;-75
2023/06/19 08:15:49;;;;;;;8.85;6.97;;;;;;;;;;5067153;27;98888;-75
2023/06/19 08:18:16;;;;;;;12.68;6.68;;;;;;;;;;5068144;27;98171;-75
2023/06/19 08:20:42;;;;;;;8.00;7.00;;;;;;;;;;5069170;27;99314;-75
2023/06/19 08:23:09;;;;;;;9.35;7.80;;;;;;;;;;5072187;27;100162;-75
2023/06/19 08:25:35;;;;;;;9.52;7.93;;;;;;;;;;5067501;27;98860;-75
2023/06/19 08:28:01;;;;;;;9.20;7.97;;;;;;;;;;5068468;27;100028;-75
2023/06/19 08:30:28;;;;;;;15.30;8.50;;;;;;;;;;5068352;27;98507;-74
2023/06/19 08:32:55;;;;;;;12.77;7.82;;;;;;;;;;5068199;27;99425;-75
2023/06/19 08:35:22;;;;;;;20.55;8.75;;;;;;;;;;5068667;27;99944;-75
2023/06/19 08:37:48;;;;;;;12.75;7.80;;;;;;;;;;5068020;27;98279;-74
2023/06/19 08:40:15;;;;;;;14.25;8.05;;;;;;;;;;5067865;27;99673;-75
2023/06/19 08:42:43;;;;;;;10.13;8.93;;;;;;;;;;5067870;27;99046;-75
2023/06/19 08:45:09;;;;;;;10.05;8.18;;;;;;;;;;5070778;27;98621;-73
2023/06/19 08:47:39;;;;;;;10.32;9.10;;;;;;;;;;5049978;27;101276;-75
2023/06/19 08:50:05;;;;;;;11.55;9.25;;;;;;;;;;5067551;27;98244;-73
2023/06/19 08:52:32;;;;;;;13.57;8.70;;;;;;;;;;5066803;27;98594;-73
2023/06/19 08:55:00;;;;;;;12.07;8.25;;;;;;;;;;5049962;27;101541;-75
2023/06/19 08:57:39;;;;;;;13.32;8.18;;;;;;;;;;5068734;27;98228;-76
2023/06/19 09:00:12;;;;;;;11.40;8.70;;;;;;;;;;5050846;27;100164;-75
2023/06/19 09:02:40;;;;;;;12.32;9.00;;;;;;;;;;5068542;27;98860;-75
2023/06/19 09:05:14;;;;;;;14.60;8.95;;;;;;;;;;5070023;27;98366;-74
2023/06/19 09:07:40;;;;;;;12.43;8.40;;;;;;;;;;5066769;27;99060;-75
2023/06/19 09:10:17;;;;;;;15.40;8.65;;;;;;;;;;5067936;27;98357;-75
2023/06/19 09:13:01;;;;;;;28.52;9.93;;;;;;;;;;5050370;27;99505;-75
2023/06/19 09:15:29;;;;;;;11.98;8.85;;;;;;;;;;5068236;27;99974;-75
2023/06/19 09:18:15;;;;;;;10.57;9.23;;;;;;;;;;5058421;27;98463;-75
2023/06/19 09:20:44;;;;;;;17.17;9.10;;;;;;;;;;5067206;27;99331;-75
2023/06/19 09:23:11;;;;;;;10.52;9.10;;;;;;;;;;5067149;27;98548;-75
2023/06/19 09:25:44;;;;;;;16.92;9.13;;;;;;;;;;5067459;27;98849;-75
2023/06/19 09:28:37;;;;;;;17.20;9.85;;;;;;;;;;5069580;27;98680;-75
2023/06/19 09:31:05;;;;;;;11.65;9.65;;;;;;;;;;5062099;27;98468;-75
2023/06/19 09:33:33;;;;;;;12.57;10.18;;;;;;;;;;5067547;27;98867;-75
2023/06/19 09:36:00;;;;;;;12.43;9.43;;;;;;;;;;5066299;27;99026;-75
2023/06/19 09:38:28;;;;;;;13.07;9.82;;;;;;;;;;5067828;27;98230;-75
2023/06/19 09:40:55;;;;;;;13.55;10.80;;;;;;;;;;5067505;27;99152;-75
2023/06/19 09:43:28;;;;;;;12.32;11.05;;;;;;;;;;5066912;27;100396;-75
2023/06/19 09:45:55;;;;;;;11.73;9.98;;;;;;;;;;5084964;27;98314;-75
2023/06/19 09:48:29;;;;;;;14.90;11.02;;;;;;;;;;5049106;27;100880;-75
2023/06/19 09:51:15;;;;;;;11.73;10.57;;;;;;;;;;5070189;27;98918;-74
2023/06/19 09:53:44;;;;;;;16.55;10.68;;;;;;;;;;5066883;27;99264;-75
2023/06/19 09:56:11;;;;;;;18.20;11.38;;;;;;;;;;5064872;27;99060;-74
2023/06/19 09:58:39;;;;;;;13.13;11.20;;;;;;;;;;5067738;27;98290;-75
2023/06/19 10:01:06;;;;;;;16.33;11.50;;;;;;;;;;5067869;27;99785;-75
2023/06/19 10:03:33;;;;;;;32.17;12.70;;;;;;;;;;5069827;27;98903;-75
2023/06/19 10:06:00;;;;;;;13.40;10.75;;;;;;;;;;5071066;27;98334;-75
2023/06/19 10:08:29;;;;;;;12.68;10.10;;;;;;;;;;5070342;27;99027;-75
2023/06/19 10:10:56;;;;;;;11.07;9.98;;;;;;;;;;5069372;27;98642;-75
2023/06/19 10:13:31;;;;;;;11.50;10.32;;;;;;;;;;5074292;27;98314;-75
2023/06/19 10:15:57;;;;;;;12.20;10.57;;;;;;;;;;5070824;27;99934;-75
2023/06/19 10:18:25;;;;;;;13.45;9.13;;;;;;;;;;5070233;27;98404;-75
2023/06/19 10:20:51;;;;;;;13.10;10.20;;;;;;;;;;5069931;27;98704;-75
2023/06/19 10:23:18;;;;;;;12.18;9.48;;;;;;;;;;5070196;27;98681;-74
2023/06/19 10:25:47;;;;;;;11.05;10.13;;;;;;;;;;5070471;27;98331;-74
2023/06/19 10:28:24;;;;;;;10.45;9.40;;;;;;;;;;5070081;27;98965;-76
2023/06/19 10:30:56;;;;;;;9.30;8.38;;;;;;;;;;5070214;27;100161;-74
2023/06/19 10:33:24;;;;;;;16.00;8.50;;;;;;;;;;5070813;27;98503;-74
2023/06/19 10:35:50;;;;;;;11.88;8.35;;;;;;;;;;5073935;27;99368;-75
2023/06/19 10:38:17;;;;;;;8.93;8.13;;;;;;;;;;5070241;27;98438;-75
2023/06/19 10:40:44;;;;;;;9.98;8.38;;;;;;;;;;5070249;27;98741;-75
2023/06/19 10:43:11;;;;;;;8.45;7.78;;;;;;;;;;5070251;27;99871;-75
2023/06/19 10:45:38;;;;;;;9.43;8.50;;;;;;;;;;5069355;27;98275;-75
2023/06/19 10:48:04;;;;;;;12.80;9.38;;;;;;;;;;5069451;27;98801;-76
2023/06/19 10:50:36;;;;;;;9.80;8.80;;;;;;;;;;5070539;27;100093;-75
2023/06/19 10:53:03;;;;;;;9.52;8.63;;;;;;;;;;5069330;27;98176;-74
2023/06/19 10:55:29;;;;;;;10.68;9.57;;;;;;;;;;5071566;27;99708;-74
2023/06/19 10:57:58;;;;;;;9.65;8.75;;;;;;;;;;5072177;27;98461;-74
2023/06/19 11:00:25;;;;;;;11.50;8.70;;;;;;;;;;5069731;27;99607;-74
2023/06/19 11:02:52;;;;;;;9.45;8.38;;;;;;;;;;5078285;27;99053;-74
2023/06/19 11:05:19;;;;;;;9.55;8.55;;;;;;;;;;5089973;27;98221;-74
2023/06/19 11:07:56;;;;;;;16.35;8.93;;;;;;;;;;5089588;27;98592;-73
2023/06/19 11:10:24;;;;;;;9.48;8.45;;;;;;;;;;5069398;27;99823;-74
2023/06/19 11:12:57;;;;;;;13.02;9.70;;;;;;;;;;5069174;27;98299;-74
2023/06/19 11:15:33;;;;;;;11.40;8.85;;;;;;;;;;5070508;27;99687;-76
2023/06/19 11:18:01;;;;;;;11.25;9.23;;;;;;;;;;5073528;27;99825;-76
2023/06/19 11:20:27;;;;;;;9.05;8.25;;;;;;;;;;5069475;27;100052;-74
2023/06/19 11:22:58;;;;;;;10.27;9.20;;;;;;;;;;5069274;27;99224;-74
2023/06/19 11:25:35;;;;;;;10.85;9.15;;;;;;;;;;5070085;27;98259;-75
2023/06/19 11:28:02;;;;;;;9.48;8.15;;;;;;;;;;5069479;27;100262;-75
2023/06/19 11:30:32;;;;;;;8.27;7.47;;;;;;;;;;5068825;27;98995;-74
2023/06/19 11:32:59;;;;;;;8.57;7.75;;;;;;;;;;5050871;27;98246;-75
2023/06/19 11:35:34;;;;;;;9.82;8.95;;;;;;;;;;5049454;27;100091;-75
2023/06/19 11:38:00;;;;;;;11.25;7.85;;;;;;;;;;5051326;27;101399;-76
2023/06/19 11:40:28;;;;;;;10.55;8.73;;;;;;;;;;5055068;27;98084;-75
2023/06/19 11:42:56;;;;;;;10.15;9.18;;;;;;;;;;5050567;27;101524;-76
2023/06/19 11:45:22;;;;;;;12.43;8.98;;;;;;;;;;5069222;27;98353;-76
2023/06/19 11:47:49;;;;;;;10.48;8.68;;;;;;;;;;5069096;27;98800;-76
2023/06/19 11:50:16;;;;;;;8.43;7.68;;;;;;;;;;5051619;27;98972;-76
2023/06/19 11:52:44;;;;;;;9.32;8.25;;;;;;;;;;5069752;27;98303;-75
2023/06/19 11:55:12;;;;;;;9.57;8.25;;;;;;;;;;5050416;27;100957;-75
2023/06/19 11:57:39;;;;;;;8.38;7.35;;;;;;;;;;5069045;27;98909;-75
2023/06/19 12:00:13;;;;;;;11.43;8.85;;;;;;;;;;5080358;27;98270;-75
2023/06/19 12:02:39;;;;;;;10.32;8.57;;;;;;;;;;5092652;27;99548;-75
2023/06/19 12:05:06;;;;;;;29.20;7.65;;;;;;;;;;5088784;27;98269;-75
2023/06/19 12:07:33;;;;;;;9.27;7.03;;;;;;;;;;5089565;27;99706;-75
2023/06/19 12:09:59;;;;;;;8.73;7.82;;;;;;;;;;5089023;27;100037;-75
2023/06/19 12:12:29;;;;;;;10.02;8.10;;;;;;;;;;5090008;27;98277;-75
2023/06/19 12:14:56;;;;;;;8.50;7.70;;;;;;;;;;5088976;27;98633;-75
2023/06/19 12:17:23;;;;;;;7.85;7.18;;;;;;;;;;5088545;27;99129;-75
2023/06/19 12:19:50;;;;;;;8.38;7.57;;;;;;;;;;5089817;27;98214;-74
2023/06/19 12:22:16;;;;;;;13.18;7.82;;;;;;;;;;5089717;27;99502;-75
2023/06/19 12:24:43;;;;;;;9.52;7.53;;;;;;;;;;5089556;27;98933;-75
2023/06/19 12:27:09;;;;;;;12.50;7.47;;;;;;;;;;5088316;27;99007;-75
2023/06/19 12:29:36;;;;;;;8.55;6.72;;;;;;;;;;5079448;27;98978;-74
2023/06/19 12:32:03;;;;;;;6.60;5.80;;;;;;;;;;5067560;27;98139;-74
2023/06/19 12:34:30;;;;;;;7.10;5.82;;;;;;;;;;5050995;27;99428;-76
2023/06/19 12:36:57;;;;;;;7.25;6.72;;;;;;;;;;5067899;27;100030;-74
2023/06/19 12:39:24;;;;;;;7.10;6.40;;;;;;;;;;5067933;27;98300;-74
2023/06/19 12:41:51;;;;;;;9.88;7.47;;;;;;;;;;5068531;27;98564;-75
2023/06/19 12:44:18;;;;;;;6.97;6.35;;;;;;;;;;5067758;27;99935;-75
2023/06/19 12:46:44;;;;;;;11.25;6.75;;;;;;;;;;5071195;27;98306;-75
2023/06/19 12:49:11;;;;;;;6.88;6.28;;;;;;;;;;5067247;27;99262;-75
2023/06/19 12:51:37;;;;;;;11.10;6.22;;;;;;;;;;5067176;27;98264;-75
2023/06/19 12:54:04;;;;;;;7.82;6.28;;;;;;;;;;5067367;27;98758;-75
2023/06/19 12:56:30;;;;;;;6.88;6.28;;;;;;;;;;5068289;27;98894;-75
2023/06/19 12:58:56;;;;;;;8.68;6.43;;;;;;;;;;5067738;27;98216;-75
2023/06/19 13:01:23;;;;;;;7.07;6.35;;;;;;;;;;5070622;27;98639;-75
2023/06/19 13:03:49;;;;;;;11.20;7.38;;;;;;;;;;5079073;27;99925;-75
2023/06/19 13:06:16;;;;;;;8.43;6.90;;;;;;;;;;5070239;27;98239;-75
2023/06/19 13:08:45;;;;;;;10.68;5.90;;;;;;;;;;5067228;27;98903;-75
2023/06/19 13:11:12;;;;;;;7.10;6.40;;;;;;;;;;5068241;27;98192;-75
2023/06/19 13:13:39;;;;;;;6.47;5.97;;;;;;;;;;5066788;27;99408;-74
2023/06/19 13:16:05;;;;;;;6.47;5.72;;;;;;;;;;5067378;27;99548;-74
2023/06/19 13:18:31;;;;;;;7.93;7.13;;;;;;;;;;5067428;27;98400;-75
2023/06/19 13:20:59;;;;;;;7.50;6.40;;;;;;;;;;5066594;27;98853;-75
2023/06/19 13:23:25;;;;;;;11.65;6.97;;;;;;;;;;5067409;27;98803;-75
2023/06/19 13:25:52;;;;;;;6.50;6.00;;;;;;;;;;5067692;27;98260;-75
2023/06/19 13:28:19;;;;;;;9.93;6.07;;;;;;;;;;5070149;27;99588;-75
2023/06/19 13:30:46;;;;;;;8.70;6.57;;;;;;;;;;5068463;27;98276;-74
2023/06/19 13:33:12;;;;;;;6.85;5.53;;;;;;;;;;5069930;27;99503;-74
2023/06/19 13:35:39;;;;;;;7.07;6.25;;;;;;;;;;5087590;27;98931;-74
2023/06/19 13:38:06;;;;;;;12.55;6.00;;;;;;;;;;5087579;27;98754;-75
2023/06/19 13:40:32;;;;;;;6.35;5.75;;;;;;;;;;5087910;27;99316;-74
2023/06/19 13:42:59;;;;;;;6.45;5.85;;;;;;;;;;5088204;27;100162;-75
2023/06/19 13:45:26;;;;;;;11.32;6.28;;;;;;;;;;5087946;27;98324;-75
2023/06/19 13:47:52;;;;;;;6.10;5.50;;;;;;;;;;5087073;27;98639;-75
2023/06/19 13:50:19;;;;;;;6.80;6.13;;;;;;;;;;5091539;27;99848;-75
2023/06/19 13:52:45;;;;;;;7.70;6.97;;;;;;;;;;5088316;27;99440;-74
2023/06/19 13:55:14;;;;;;;7.65;7.05;;;;;;;;;;5076301;27;99962;-74
2023/06/19 13:57:40;;;;;;;7.60;6.85;;;;;;;;;;5066527;27;98876;-74
2023/06/19 14:00:08;;;;;;;9.50;6.97;;;;;;;;;;5067246;27;99473;-74
2023/06/19 14:02:41;;;;;;;7.95;7.00;;;;;;;;;;5066244;27;99875;-74
2023/06/19 14:05:08;;;;;;;7.75;6.72;;;;;;;;;;5067424;27;98436;-75
2023/06/19 14:07:35;;;;;;;7.40;6.80;;;;;;;;;;5067255;27;98772;-75
2023/06/19 14:10:02;;;;;;;7.88;6.70;;;;;;;;;;5066509;27;100044;-75
2023/06/19 14:12:30;;;;;;;9.63;7.22;;;;;;;;;;5070426;27;98243;-75
2023/06/19 14:14:56;;;;;;;9.40;6.65;;;;;;;;;;5065898;27;98834;-75
2023/06/19 14:17:22;;;;;;;8.55;6.35;;;;;;;;;;5066924;27;98765;-74
2023/06/19 14:19:50;;;;;;;9.82;7.18;;;;;;;;;;5067969;27;99386;-74
2023/06/19 14:22:17;;;;;;;7.57;6.97;;;;;;;;;;5066592;27;99388;-75
2023/06/19 14:24:44;;;;;;;9.80;6.47;;;;;;;;;;5066762;27;98640;-75
2023/06/19 14:27:10;;;;;;;8.73;6.45;;;;;;;;;;5066127;27;99576;-74
2023/06/19 14:29:37;;;;;;;7.40;6.80;;;;;;;;;;5065688;27;99280;-75
2023/06/19 14:32:03;;;;;;;7.03;6.32;;;;;;;;;;5067122;27;98188;-74
2023/06/19 14:34:30;;;;;;;6.95;6.30;;;;;;;;;;5070510;27;99642;-74
2023/06/19 14:36:56;;;;;;;6.20;5.70;;;;;;;;;;5065670;27;98287;-74
2023/06/19 14:39:23;;;;;;;5.97;5.47;;;;;;;;;;5067369;27;99655;-74